Superfast Xi — SYCF — position and weather

sailwx.info

Track history (hours):
 
Tides and Currents Weather Stations Pressure Air Temp Water Temp Dewpoint Dewpoint Depression Visibility Wind Speed Wind Dir Waves Ship Positions

Superfast Xi

Last reported at 2015-Jun-15 10:21 UTC. Time now 2015-Jul-03 06:16 UTC.
Position N 38°32' E 020°36'.
Warning: this ship's position is 17 days out of date.

Length 200 m; draft 6.5 m.

Type: Passenger vessel. MMSI: 239918000.

Date/timePositionNaut miles runAvg speedWind from/ knotsBaromVisibWave heightAir tempDewpointWater temp
2015-Jun-15 10:21N 38°32' E 020°36'2326.6
2015-Jun-15 09:28N 38°54' E 020°25'14 0.4
2015-Jun-13 18:33N 39°08' E 020°20'157 8.2
2015-Jun-12 23:19N 41°03' E 018°01'4224.1
2015-Jun-12 21:33N 41°30' E 017°18'  
2015-Jun-08 08:04N 39°23' E 020°12'712.8
2015-Jun-08 07:30N 39°30' E 020°15'2 2.0
2015-Jun-08 06:33N 39°30' E 020°12'2019.8
2015-Jun-08 05:33N 39°47' E 019°58'2626.0
2015-Jun-08 04:34N 40°04' E 019°33'3 0.1
2015-Jun-06 23:33N 40°07' E 019°31'2726.7
2015-Jun-06 22:33N 39°49' E 019°58'2121.1
2015-Jun-06 21:34N 39°30' E 020°09'5 4.2
2015-Jun-06 20:28N 39°30' E 020°15'4 4.4
2015-Jun-06 19:34N 39°28' E 020°10'2625.9
2015-Jun-06 18:32N 39°03' E 020°21'31 3.1
2015-Jun-06 08:23N 38°33' E 020°32'  
Track history (hours):
 
Tides and Currents Weather Stations Pressure Air Temp Water Temp Dewpoint Dewpoint Depression Visibility Wind Speed Wind Dir Waves Ship Positions

Superfast Xi

Last reported at 2015-Jun-15 10:21 UTC. Time now 2015-Jul-03 06:16 UTC.
Position N 38°32' E 020°36'.
Warning: this ship's position is 17 days out of date.

Length 200 m; draft 6.5 m.

Type: Passenger vessel. MMSI: 239918000.

Date/timePositionNaut miles runAvg speedWind from/ knotsBaromVisibWave heightAir tempDewpointWater temp
2015-Jun-15 10:21N 38°32' E 020°36'2326.6
2015-Jun-15 09:28N 38°54' E 020°25'14 0.4
2015-Jun-13 18:33N 39°08' E 020°20'157 8.2
2015-Jun-12 23:19N 41°03' E 018°01'4224.1
2015-Jun-12 21:33N 41°30' E 017°18'  
2015-Jun-08 08:04N 39°23' E 020°12'712.8
2015-Jun-08 07:30N 39°30' E 020°15'2 2.0
2015-Jun-08 06:33N 39°30' E 020°12'2019.8
2015-Jun-08 05:33N 39°47' E 019°58'2626.0
2015-Jun-08 04:34N 40°04' E 019°33'3 0.1
2015-Jun-06 23:33N 40°07' E 019°31'2726.7
2015-Jun-06 22:33N 39°49' E 019°58'2121.1
2015-Jun-06 21:34N 39°30' E 020°09'5 4.2
2015-Jun-06 20:28N 39°30' E 020°15'4 4.4
2015-Jun-06 19:34N 39°28' E 020°10'2625.9
2015-Jun-06 18:32N 39°03' E 020°21'31 3.1
2015-Jun-06 08:23N 38°33' E 020°32'  

Dump ship's entire track history